sensor_id;sensor_type;location;lat;lon;timestamp;temperature;humidity
25440;DHT22;13365;52.208;5.488;2023-04-01T00:01:24;15.00;99.90
25440;DHT22;13365;52.208;5.488;2023-04-01T00:03:50;15.00;99.90
25440;DHT22;13365;52.208;5.488;2023-04-01T00:06:17;15.20;99.90
25440;DHT22;13365;52.208;5.488;2023-04-01T00:08:43;15.20;99.90
25440;DHT22;13365;52.208;5.488;2023-04-01T00:11:10;15.40;99.90
25440;DHT22;13365;52.208;5.488;2023-04-01T00:13:35;15.40;99.90
25440;DHT22;13365;52.208;5.488;2023-04-01T00:16:01;15.50;99.90
25440;DHT22;13365;52.208;5.488;2023-04-01T00:18:28;15.40;99.90
25440;DHT22;13365;52.208;5.488;2023-04-01T00:20:54;15.50;99.90
25440;DHT22;13365;52.208;5.488;2023-04-01T00:23:20;15.60;99.90
25440;DHT22;13365;52.208;5.488;2023-04-01T00:25:46;15.60;99.90
25440;DHT22;13365;52.208;5.488;2023-04-01T00:28:14;15.60;99.90
25440;DHT22;13365;52.208;5.488;2023-04-01T00:30:40;15.50;99.90
25440;DHT22;13365;52.208;5.488;2023-04-01T00:33:06;15.60;99.90
25440;DHT22;13365;52.208;5.488;2023-04-01T00:35:32;15.50;99.90
25440;DHT22;13365;52.208;5.488;2023-04-01T00:37:58;15.30;99.90
25440;DHT22;13365;52.208;5.488;2023-04-01T00:40:36;15.20;99.90
25440;DHT22;13365;52.208;5.488;2023-04-01T00:43:03;14.90;99.90
25440;DHT22;13365;52.208;5.488;2023-04-01T00:45:39;14.90;99.90
25440;DHT22;13365;52.208;5.488;2023-04-01T00:48:18;14.90;99.90
25440;DHT22;13365;52.208;5.488;2023-04-01T00:51:10;14.90;99.90
25440;DHT22;13365;52.208;5.488;2023-04-01T00:53:37;15.00;99.90
25440;DHT22;13365;52.208;5.488;2023-04-01T00:56:07;15.10;99.90
25440;DHT22;13365;52.208;5.488;2023-04-01T00:58:40;15.20;99.90
25440;DHT22;13365;52.208;5.488;2023-04-01T01:01:07;15.30;99.90
25440;DHT22;13365;52.208;5.488;2023-04-01T01:03:33;15.20;99.90
25440;DHT22;13365;52.208;5.488;2023-04-01T01:14:32;14.70;99.90
25440;DHT22;13365;52.208;5.488;2023-04-01T01:19:57;14.60;99.90
25440;DHT22;13365;52.208;5.488;2023-04-01T01:27:35;14.60;99.90
25440;DHT22;13365;52.208;5.488;2023-04-01T01:30:14;14.40;99.90
25440;DHT22;13365;52.208;5.488;2023-04-01T01:35:48;14.20;99.90
25440;DHT22;13365;52.208;5.488;2023-04-01T01:38:18;14.20;99.90
25440;DHT22;13365;52.208;5.488;2023-04-01T01:40:48;14.20;99.90
25440;DHT22;13365;52.208;5.488;2023-04-01T01:43:21;14.10;99.90
25440;DHT22;13365;52.208;5.488;2023-04-01T01:45:51;14.20;99.90
25440;DHT22;13365;52.208;5.488;2023-04-01T01:48:19;14.30;99.90
25440;DHT22;13365;52.208;5.488;2023-04-01T01:50:46;14.40;99.90
25440;DHT22;13365;52.208;5.488;2023-04-01T01:53:13;14.50;99.90
25440;DHT22;13365;52.208;5.488;2023-04-01T01:55:44;14.50;99.90
25440;DHT22;13365;52.208;5.488;2023-04-01T01:58:34;14.50;99.90
25440;DHT22;13365;52.208;5.488;2023-04-01T02:01:07;14.60;99.90
25440;DHT22;13365;52.208;5.488;2023-04-01T02:03:36;14.70;99.90
25440;DHT22;13365;52.208;5.488;2023-04-01T02:06:05;14.60;99.90
25440;DHT22;13365;52.208;5.488;2023-04-01T02:08:41;14.70;99.90
25440;DHT22;13365;52.208;5.488;2023-04-01T02:11:10;14.80;99.90
25440;DHT22;13365;52.208;5.488;2023-04-01T02:13:47;14.70;99.90
25440;DHT22;13365;52.208;5.488;2023-04-01T02:16:20;14.80;99.90
25440;DHT22;13365;52.208;5.488;2023-04-01T02:18:50;15.00;99.90
25440;DHT22;13365;52.208;5.488;2023-04-01T02:21:18;15.00;99.90
25440;DHT22;13365;52.208;5.488;2023-04-01T02:23:45;15.10;99.90
25440;DHT22;13365;52.208;5.488;2023-04-01T02:26:12;15.10;99.90
25440;DHT22;13365;52.208;5.488;2023-04-01T02:28:38;15.00;99.90
25440;DHT22;13365;52.208;5.488;2023-04-01T02:31:06;15.10;99.90
25440;DHT22;13365;52.208;5.488;2023-04-01T02:33:33;15.10;99.90
25440;DHT22;13365;52.208;5.488;2023-04-01T02:35:59;14.90;99.90
25440;DHT22;13365;52.208;5.488;2023-04-01T02:38:25;14.90;99.90
25440;DHT22;13365;52.208;5.488;2023-04-01T02:41:00;15.00;99.90
25440;DHT22;13365;52.208;5.488;2023-04-01T02:43:26;15.00;99.90
25440;DHT22;13365;52.208;5.488;2023-04-01T02:45:52;14.90;99.90
25440;DHT22;13365;52.208;5.488;2023-04-01T02:48:18;14.80;99.90
25440;DHT22;13365;52.208;5.488;2023-04-01T02:50:43;14.70;99.90
25440;DHT22;13365;52.208;5.488;2023-04-01T02:53:09;14.90;99.90
25440;DHT22;13365;52.208;5.488;2023-04-01T02:55:35;14.90;99.90
25440;DHT22;13365;52.208;5.488;2023-04-01T02:58:01;14.90;99.90
25440;DHT22;13365;52.208;5.488;2023-04-01T03:00:26;14.90;99.90
25440;DHT22;13365;52.208;5.488;2023-04-01T03:02:52;15.00;99.90
25440;DHT22;13365;52.208;5.488;2023-04-01T03:05:18;15.10;99.90
25440;DHT22;13365;52.208;5.488;2023-04-01T03:07:44;15.00;99.90
25440;DHT22;13365;52.208;5.488;2023-04-01T03:10:10;15.00;99.90
25440;DHT22;13365;52.208;5.488;2023-04-01T03:12:36;14.90;99.90
25440;DHT22;13365;52.208;5.488;2023-04-01T03:15:02;15.10;99.90
25440;DHT22;13365;52.208;5.488;2023-04-01T03:17:27;14.80;99.90
25440;DHT22;13365;52.208;5.488;2023-04-01T03:19:54;14.80;99.90
25440;DHT22;13365;52.208;5.488;2023-04-01T03:22:19;14.70;99.90
25440;DHT22;13365;52.208;5.488;2023-04-01T03:24:47;14.60;99.90
25440;DHT22;13365;52.208;5.488;2023-04-01T03:27:13;14.30;99.90
25440;DHT22;13365;52.208;5.488;2023-04-01T03:29:38;13.80;99.90
25440;DHT22;13365;52.208;5.488;2023-04-01T03:32:04;13.70;99.90
25440;DHT22;13365;52.208;5.488;2023-04-01T03:34:30;13.50;99.90
25440;DHT22;13365;52.208;5.488;2023-04-01T03:36:55;13.80;99.90
25440;DHT22;13365;52.208;5.488;2023-04-01T03:39:21;13.80;99.90
25440;DHT22;13365;52.208;5.488;2023-04-01T03:41:47;13.60;99.90
25440;DHT22;13365;52.208;5.488;2023-04-01T03:44:13;13.30;99.90
25440;DHT22;13365;52.208;5.488;2023-04-01T03:46:38;13.20;99.90
25440;DHT22;13365;52.208;5.488;2023-04-01T03:49:10;13.10;99.90
25440;DHT22;13365;52.208;5.488;2023-04-01T03:51:41;13.00;99.90
25440;DHT22;13365;52.208;5.488;2023-04-01T03:54:08;12.80;99.90
25440;DHT22;13365;52.208;5.488;2023-04-01T03:56:34;13.00;99.90
25440;DHT22;13365;52.208;5.488;2023-04-01T03:59:04;12.90;99.90
25440;DHT22;13365;52.208;5.488;2023-04-01T04:01:30;13.00;99.90
25440;DHT22;13365;52.208;5.488;2023-04-01T04:03:56;13.00;99.90
25440;DHT22;13365;52.208;5.488;2023-04-01T04:06:22;13.00;99.90
25440;DHT22;13365;52.208;5.488;2023-04-01T04:08:49;13.20;99.90
25440;DHT22;13365;52.208;5.488;2023-04-01T04:11:14;13.10;99.90
25440;DHT22;13365;52.208;5.488;2023-04-01T04:13:40;13.30;99.90
25440;DHT22;13365;52.208;5.488;2023-04-01T04:16:06;13.30;99.90
25440;DHT22;13365;52.208;5.488;2023-04-01T04:18:32;13.20;99.90
25440;DHT22;13365;52.208;5.488;2023-04-01T04:20:58;13.50;99.90
25440;DHT22;13365;52.208;5.488;2023-04-01T04:23:23;13.40;99.90
25440;DHT22;13365;52.208;5.488;2023-04-01T04:26:04;13.40;99.90
25440;DHT22;13365;52.208;5.488;2023-04-01T04:28:30;13.50;99.90
25440;DHT22;13365;52.208;5.488;2023-04-01T04:30:56;13.60;99.90
25440;DHT22;13365;52.208;5.488;2023-04-01T04:33:22;13.50;99.90
25440;DHT22;13365;52.208;5.488;2023-04-01T04:35:48;13.70;99.90
25440;DHT22;13365;52.208;5.488;2023-04-01T04:38:14;14.00;99.90
25440;DHT22;13365;52.208;5.488;2023-04-01T04:40:41;13.70;99.90
25440;DHT22;13365;52.208;5.488;2023-04-01T04:43:06;14.10;99.90
25440;DHT22;13365;52.208;5.488;2023-04-01T04:45:32;14.10;99.90
25440;DHT22;13365;52.208;5.488;2023-04-01T04:47:57;14.10;99.90
25440;DHT22;13365;52.208;5.488;2023-04-01T04:50:24;14.20;99.90
25440;DHT22;13365;52.208;5.488;2023-04-01T04:52:50;14.20;99.90
25440;DHT22;13365;52.208;5.488;2023-04-01T04:55:15;14.50;99.90
25440;DHT22;13365;52.208;5.488;2023-04-01T04:57:41;14.30;99.90
25440;DHT22;13365;52.208;5.488;2023-04-01T05:00:07;14.20;99.90
25440;DHT22;13365;52.208;5.488;2023-04-01T05:02:33;14.60;99.90
25440;DHT22;13365;52.208;5.488;2023-04-01T05:04:59;14.70;99.90
25440;DHT22;13365;52.208;5.488;2023-04-01T05:07:25;14.60;99.90
25440;DHT22;13365;52.208;5.488;2023-04-01T05:09:50;14.40;99.90
25440;DHT22;13365;52.208;5.488;2023-04-01T05:12:16;14.60;99.90
25440;DHT22;13365;52.208;5.488;2023-04-01T05:14:42;14.40;99.90
25440;DHT22;13365;52.208;5.488;2023-04-01T05:17:11;14.40;99.90
25440;DHT22;13365;52.208;5.488;2023-04-01T05:19:38;14.60;99.90
25440;DHT22;13365;52.208;5.488;2023-04-01T05:22:04;14.50;99.90
25440;DHT22;13365;52.208;5.488;2023-04-01T05:24:30;14.60;99.90
25440;DHT22;13365;52.208;5.488;2023-04-01T05:26:56;14.40;99.90
25440;DHT22;13365;52.208;5.488;2023-04-01T05:29:23;14.30;99.90
25440;DHT22;13365;52.208;5.488;2023-04-01T05:31:48;14.60;99.90
25440;DHT22;13365;52.208;5.488;2023-04-01T05:34:14;14.40;99.90
25440;DHT22;13365;52.208;5.488;2023-04-01T05:36:40;14.30;99.90
25440;DHT22;13365;52.208;5.488;2023-04-01T05:39:07;14.30;99.90
25440;DHT22;13365;52.208;5.488;2023-04-01T05:41:35;14.00;99.90
25440;DHT22;13365;52.208;5.488;2023-04-01T05:44:01;14.20;99.90
25440;DHT22;13365;52.208;5.488;2023-04-01T05:46:26;14.10;99.90
25440;DHT22;13365;52.208;5.488;2023-04-01T05:48:52;13.90;99.90
25440;DHT22;13365;52.208;5.488;2023-04-01T05:51:17;13.80;99.90
25440;DHT22;13365;52.208;5.488;2023-04-01T05:53:43;13.70;99.90
25440;DHT22;13365;52.208;5.488;2023-04-01T05:56:09;13.60;99.90
25440;DHT22;13365;52.208;5.488;2023-04-01T05:58:35;13.50;99.90
25440;DHT22;13365;52.208;5.488;2023-04-01T06:01:03;13.50;99.90
25440;DHT22;13365;52.208;5.488;2023-04-01T06:03:29;13.70;99.90
25440;DHT22;13365;52.208;5.488;2023-04-01T06:05:55;13.70;99.90
25440;DHT22;13365;52.208;5.488;2023-04-01T06:08:20;14.00;99.90
25440;DHT22;13365;52.208;5.488;2023-04-01T06:14:07;13.80;99.90
25440;DHT22;13365;52.208;5.488;2023-04-01T06:22:08;13.60;99.90
25440;DHT22;13365;52.208;5.488;2023-04-01T06:25:02;13.70;99.90
25440;DHT22;13365;52.208;5.488;2023-04-01T06:27:58;13.70;99.90
25440;DHT22;13365;52.208;5.488;2023-04-01T06:33:43;14.00;99.90
25440;DHT22;13365;52.208;5.488;2023-04-01T06:36:21;13.80;99.90
25440;DHT22;13365;52.208;5.488;2023-04-01T06:39:16;14.00;99.90
25440;DHT22;13365;52.208;5.488;2023-04-01T06:45:00;14.10;99.90
25440;DHT22;13365;52.208;5.488;2023-04-01T06:47:38;14.30;99.90
25440;DHT22;13365;52.208;5.488;2023-04-01T06:53:04;14.30;99.90
25440;DHT22;13365;52.208;5.488;2023-04-01T06:56:08;14.10;99.90
25440;DHT22;13365;52.208;5.488;2023-04-01T06:58:39;13.80;99.90
25440;DHT22;13365;52.208;5.488;2023-04-01T07:01:10;13.70;99.90
25440;DHT22;13365;52.208;5.488;2023-04-01T07:03:47;13.70;99.90
25440;DHT22;13365;52.208;5.488;2023-04-01T07:06:30;14.00;99.90
25440;DHT22;13365;52.208;5.488;2023-04-01T07:08:59;13.80;99.90
25440;DHT22;13365;52.208;5.488;2023-04-01T07:11:31;13.90;99.90
25440;DHT22;13365;52.208;5.488;2023-04-01T07:17:18;14.00;99.90
25440;DHT22;13365;52.208;5.488;2023-04-01T07:19:46;13.80;99.90
25440;DHT22;13365;52.208;5.488;2023-04-01T07:22:38;14.00;99.90
25440;DHT22;13365;52.208;5.488;2023-04-01T07:25:21;14.10;99.90
25440;DHT22;13365;52.208;5.488;2023-04-01T07:27:48;14.30;99.90
25440;DHT22;13365;52.208;5.488;2023-04-01T07:30:17;14.10;99.90
25440;DHT22;13365;52.208;5.488;2023-04-01T07:32:47;14.30;99.90
25440;DHT22;13365;52.208;5.488;2023-04-01T07:35:25;14.10;99.90
25440;DHT22;13365;52.208;5.488;2023-04-01T07:46:33;14.20;99.90
25440;DHT22;13365;52.208;5.488;2023-04-01T07:52:00;14.20;99.90
25440;DHT22;13365;52.208;5.488;2023-04-01T07:57:08;14.20;99.90
25440;DHT22;13365;52.208;5.488;2023-04-01T08:00:12;14.30;99.90
25440;DHT22;13365;52.208;5.488;2023-04-01T08:05:32;14.20;99.90
25440;DHT22;13365;52.208;5.488;2023-04-01T08:08:24;14.30;99.90
25440;DHT22;13365;52.208;5.488;2023-04-01T08:11:05;14.00;99.90
25440;DHT22;13365;52.208;5.488;2023-04-01T08:13:41;14.10;99.90
25440;DHT22;13365;52.208;5.488;2023-04-01T08:24:22;14.30;99.90
25440;DHT22;13365;52.208;5.488;2023-04-01T08:26:54;14.40;99.90
25440;DHT22;13365;52.208;5.488;2023-04-01T08:29:34;14.40;99.90
25440;DHT22;13365;52.208;5.488;2023-04-01T08:32:17;14.30;99.90
25440;DHT22;13365;52.208;5.488;2023-04-01T08:34:47;14.70;99.90
25440;DHT22;13365;52.208;5.488;2023-04-01T08:37:24;14.60;99.90
25440;DHT22;13365;52.208;5.488;2023-04-01T08:40:02;14.70;99.90
25440;DHT22;13365;52.208;5.488;2023-04-01T08:42:51;14.80;99.90
25440;DHT22;13365;52.208;5.488;2023-04-01T08:45:45;15.00;99.90
25440;DHT22;13365;52.208;5.488;2023-04-01T08:48:23;15.00;99.90
25440;DHT22;13365;52.208;5.488;2023-04-01T08:54:20;14.30;99.90
25440;DHT22;13365;52.208;5.488;2023-04-01T08:57:06;14.60;99.90
25440;DHT22;13365;52.208;5.488;2023-04-01T09:02:58;14.60;99.90
25440;DHT22;13365;52.208;5.488;2023-04-01T09:08:25;14.70;99.90
25440;DHT22;13365;52.208;5.488;2023-04-01T09:11:54;15.00;99.90
25440;DHT22;13365;52.208;5.488;2023-04-01T09:19:37;15.00;99.90
25440;DHT22;13365;52.208;5.488;2023-04-01T09:22:17;15.10;99.90
25440;DHT22;13365;52.208;5.488;2023-04-01T09:33:17;15.70;99.90
25440;DHT22;13365;52.208;5.488;2023-04-01T09:36:02;15.90;99.90
25440;DHT22;13365;52.208;5.488;2023-04-01T09:44:22;16.10;99.90
25440;DHT22;13365;52.208;5.488;2023-04-01T09:49:38;16.10;99.90
25440;DHT22;13365;52.208;5.488;2023-04-01T10:14:45;15.80;99.90
25440;DHT22;13365;52.208;5.488;2023-04-01T10:31:50;15.50;99.90
25440;DHT22;13365;52.208;5.488;2023-04-01T10:37:41;15.30;99.90
25440;DHT22;13365;52.208;5.488;2023-04-01T10:40:07;15.50;99.90
25440;DHT22;13365;52.208;5.488;2023-04-01T10:48:41;15.60;99.90
25440;DHT22;13365;52.208;5.488;2023-04-01T10:56:34;15.70;99.90
25440;DHT22;13365;52.208;5.488;2023-04-01T11:04:51;15.90;99.90
25440;DHT22;13365;52.208;5.488;2023-04-01T11:10:41;15.90;99.90
25440;DHT22;13365;52.208;5.488;2023-04-01T11:24:35;15.80;99.90
25440;DHT22;13365;52.208;5.488;2023-04-01T11:35:36;16.00;99.90
25440;DHT22;13365;52.208;5.488;2023-04-01T11:41:16;16.00;99.90
25440;DHT22;13365;52.208;5.488;2023-04-01T11:44:22;16.20;99.90
25440;DHT22;13365;52.208;5.488;2023-04-01T11:46:56;16.10;99.90
25440;DHT22;13365;52.208;5.488;2023-04-01T11:49:40;16.00;99.90
25440;DHT22;13365;52.208;5.488;2023-04-01T11:55:19;16.40;99.90
25440;DHT22;13365;52.208;5.488;2023-04-01T12:09:10;16.50;99.90
25440;DHT22;13365;52.208;5.488;2023-04-01T12:17:54;15.80;99.90
25440;DHT22;13365;52.208;5.488;2023-04-01T12:28:54;15.60;99.90
25440;DHT22;13365;52.208;5.488;2023-04-01T12:37:04;15.90;99.90
25440;DHT22;13365;52.208;5.488;2023-04-01T12:39:52;15.80;99.90
25440;DHT22;13365;52.208;5.488;2023-04-01T12:42:28;16.00;99.90
25440;DHT22;13365;52.208;5.488;2023-04-01T12:56:13;16.20;99.90
25440;DHT22;13365;52.208;5.488;2023-04-01T13:02:11;16.40;99.90
25440;DHT22;13365;52.208;5.488;2023-04-01T13:10:27;16.60;99.90
25440;DHT22;13365;52.208;5.488;2023-04-01T13:19:07;15.80;99.90
25440;DHT22;13365;52.208;5.488;2023-04-01T13:22:15;15.90;99.90
25440;DHT22;13365;52.208;5.488;2023-04-01T13:24:57;15.90;99.90
25440;DHT22;13365;52.208;5.488;2023-04-01T13:27:45;15.70;99.90
25440;DHT22;13365;52.208;5.488;2023-04-01T13:30:24;15.50;99.90
25440;DHT22;13365;52.208;5.488;2023-04-01T13:33:01;15.70;99.90
25440;DHT22;13365;52.208;5.488;2023-04-01T13:35:48;15.80;99.90
25440;DHT22;13365;52.208;5.488;2023-04-01T13:41:17;15.50;99.90
25440;DHT22;13365;52.208;5.488;2023-04-01T13:44:12;15.50;99.90
25440;DHT22;13365;52.208;5.488;2023-04-01T13:52:56;14.40;99.90
25440;DHT22;13365;52.208;5.488;2023-04-01T13:55:34;14.20;99.90
25440;DHT22;13365;52.208;5.488;2023-04-01T13:58:17;14.30;99.90
25440;DHT22;13365;52.208;5.488;2023-04-01T14:01:25;14.10;99.90
25440;DHT22;13365;52.208;5.488;2023-04-01T14:09:44;13.90;99.90
25440;DHT22;13365;52.208;5.488;2023-04-01T14:12:30;13.90;99.90
25440;DHT22;13365;52.208;5.488;2023-04-01T14:18:01;13.60;99.90
25440;DHT22;13365;52.208;5.488;2023-04-01T14:26:33;13.40;99.90
25440;DHT22;13365;52.208;5.488;2023-04-01T14:31:47;13.40;99.90
25440;DHT22;13365;52.208;5.488;2023-04-01T14:34:29;13.20;99.90
25440;DHT22;13365;52.208;5.488;2023-04-01T14:39:52;13.20;99.90
25440;DHT22;13365;52.208;5.488;2023-04-01T14:47:59;13.60;99.90
25440;DHT22;13365;52.208;5.488;2023-04-01T14:50:40;13.60;99.90
25440;DHT22;13365;52.208;5.488;2023-04-01T15:01:02;13.80;99.90
25440;DHT22;13365;52.208;5.488;2023-04-01T15:03:38;13.80;99.90
25440;DHT22;13365;52.208;5.488;2023-04-01T15:30:38;13.50;99.90
25440;DHT22;13365;52.208;5.488;2023-04-01T15:38:44;13.30;99.90
25440;DHT22;13365;52.208;5.488;2023-04-01T15:41:29;13.40;99.90
25440;DHT22;13365;52.208;5.488;2023-04-01T15:44:01;13.40;99.90
25440;DHT22;13365;52.208;5.488;2023-04-01T15:46:46;13.30;99.90
25440;DHT22;13365;52.208;5.488;2023-04-01T15:55:11;13.00;99.90
25440;DHT22;13365;52.208;5.488;2023-04-01T16:00:30;12.70;99.90
25440;DHT22;13365;52.208;5.488;2023-04-01T16:03:17;12.90;99.90
25440;DHT22;13365;52.208;5.488;2023-04-01T16:08:41;12.80;99.90
25440;DHT22;13365;52.208;5.488;2023-04-01T16:11:19;13.20;99.90
25440;DHT22;13365;52.208;5.488;2023-04-01T16:19:46;12.90;99.90
25440;DHT22;13365;52.208;5.488;2023-04-01T16:22:42;13.00;99.90
25440;DHT22;13365;52.208;5.488;2023-04-01T16:25:39;12.70;99.90
25440;DHT22;13365;52.208;5.488;2023-04-01T16:29:07;12.50;99.90
25440;DHT22;13365;52.208;5.488;2023-04-01T16:34:16;12.20;99.90
25440;DHT22;13365;52.208;5.488;2023-04-01T16:36:53;12.10;99.90
25440;DHT22;13365;52.208;5.488;2023-04-01T16:39:27;12.20;99.90
25440;DHT22;13365;52.208;5.488;2023-04-01T16:42:21;12.30;99.90
25440;DHT22;13365;52.208;5.488;2023-04-01T16:44:59;12.00;99.90
25440;DHT22;13365;52.208;5.488;2023-04-01T16:48:05;11.80;99.90
25440;DHT22;13365;52.208;5.488;2023-04-01T16:50:44;11.50;99.90
25440;DHT22;13365;52.208;5.488;2023-04-01T16:55:57;11.60;99.90
25440;DHT22;13365;52.208;5.488;2023-04-01T16:58:48;11.80;99.90
25440;DHT22;13365;52.208;5.488;2023-04-01T17:01:26;11.90;99.90
25440;DHT22;13365;52.208;5.488;2023-04-01T17:03:58;11.90;99.90
25440;DHT22;13365;52.208;5.488;2023-04-01T17:06:43;12.00;99.90
25440;DHT22;13365;52.208;5.488;2023-04-01T17:12:12;11.70;99.90
25440;DHT22;13365;52.208;5.488;2023-04-01T17:17:45;11.90;99.90
25440;DHT22;13365;52.208;5.488;2023-04-01T17:23:12;12.30;99.90
25440;DHT22;13365;52.208;5.488;2023-04-01T17:31:37;11.90;99.90
25440;DHT22;13365;52.208;5.488;2023-04-01T17:37:29;11.90;99.90
25440;DHT22;13365;52.208;5.488;2023-04-01T17:45:58;11.50;99.90
25440;DHT22;13365;52.208;5.488;2023-04-01T17:48:34;11.50;99.90
25440;DHT22;13365;52.208;5.488;2023-04-01T17:51:10;11.50;99.90
25440;DHT22;13365;52.208;5.488;2023-04-01T17:56:22;11.50;99.90
25440;DHT22;13365;52.208;5.488;2023-04-01T17:59:09;11.20;99.90
25440;DHT22;13365;52.208;5.488;2023-04-01T18:01:55;11.30;99.90
25440;DHT22;13365;52.208;5.488;2023-04-01T18:04:42;11.30;99.90
25440;DHT22;13365;52.208;5.488;2023-04-01T18:07:25;11.00;99.90
25440;DHT22;13365;52.208;5.488;2023-04-01T18:15:46;11.00;99.90
25440;DHT22;13365;52.208;5.488;2023-04-01T18:23:50;10.90;99.90
25440;DHT22;13365;52.208;5.488;2023-04-01T18:26:29;11.10;99.90
25440;DHT22;13365;52.208;5.488;2023-04-01T18:28:59;10.90;99.90
25440;DHT22;13365;52.208;5.488;2023-04-01T18:31:43;11.20;99.90
25440;DHT22;13365;52.208;5.488;2023-04-01T18:34:21;11.20;99.90
25440;DHT22;13365;52.208;5.488;2023-04-01T18:36:59;11.30;99.90
25440;DHT22;13365;52.208;5.488;2023-04-01T18:39:43;10.80;99.90
25440;DHT22;13365;52.208;5.488;2023-04-01T18:42:38;11.10;99.90
25440;DHT22;13365;52.208;5.488;2023-04-01T18:47:49;10.70;99.90
25440;DHT22;13365;52.208;5.488;2023-04-01T18:50:41;10.60;99.90
25440;DHT22;13365;52.208;5.488;2023-04-01T18:56:43;10.80;99.90
25440;DHT22;13365;52.208;5.488;2023-04-01T18:59:08;10.80;99.90
25440;DHT22;13365;52.208;5.488;2023-04-01T19:01:43;10.90;99.90
25440;DHT22;13365;52.208;5.488;2023-04-01T19:06:53;10.80;99.90
25440;DHT22;13365;52.208;5.488;2023-04-01T19:09:46;10.70;99.90
25440;DHT22;13365;52.208;5.488;2023-04-01T19:12:32;10.70;99.90
25440;DHT22;13365;52.208;5.488;2023-04-01T19:17:58;10.70;99.90
25440;DHT22;13365;52.208;5.488;2023-04-01T19:20:37;10.90;99.90
25440;DHT22;13365;52.208;5.488;2023-04-01T19:23:23;10.80;99.90
25440;DHT22;13365;52.208;5.488;2023-04-01T19:25:55;10.80;99.90
25440;DHT22;13365;52.208;5.488;2023-04-01T19:36:50;10.30;99.90
25440;DHT22;13365;52.208;5.488;2023-04-01T19:47:19;10.30;99.90
25440;DHT22;13365;52.208;5.488;2023-04-01T19:52:39;10.20;99.90
25440;DHT22;13365;52.208;5.488;2023-04-01T19:55:29;10.30;99.90
25440;DHT22;13365;52.208;5.488;2023-04-01T20:00:59;10.50;99.90
25440;DHT22;13365;52.208;5.488;2023-04-01T20:09:58;10.20;99.90
25440;DHT22;13365;52.208;5.488;2023-04-01T20:15:02;10.10;99.90
25440;DHT22;13365;52.208;5.488;2023-04-01T20:17:42;10.10;99.90
25440;DHT22;13365;52.208;5.488;2023-04-01T20:23:38;10.20;99.90
25440;DHT22;13365;52.208;5.488;2023-04-01T20:26:01;10.10;99.90
25440;DHT22;13365;52.208;5.488;2023-04-01T20:28:43;10.00;99.90
25440;DHT22;13365;52.208;5.488;2023-04-01T20:31:22;10.10;99.90
25440;DHT22;13365;52.208;5.488;2023-04-01T20:34:22;10.00;99.90
25440;DHT22;13365;52.208;5.488;2023-04-01T20:53:28;10.70;99.90
25440;DHT22;13365;52.208;5.488;2023-04-01T21:01:57;10.10;99.90
25440;DHT22;13365;52.208;5.488;2023-04-01T21:04:41;10.00;99.90
25440;DHT22;13365;52.208;5.488;2023-04-01T21:10:29;9.80;99.90
25440;DHT22;13365;52.208;5.488;2023-04-01T21:13:21;9.70;99.90
25440;DHT22;13365;52.208;5.488;2023-04-01T21:26:48;9.80;99.90
25440;DHT22;13365;52.208;5.488;2023-04-01T21:42:53;9.60;99.90
25440;DHT22;13365;52.208;5.488;2023-04-01T21:51:02;9.30;99.90
25440;DHT22;13365;52.208;5.488;2023-04-01T21:59:42;9.20;99.90
25440;DHT22;13365;52.208;5.488;2023-04-01T22:10:26;9.00;99.90
25440;DHT22;13365;52.208;5.488;2023-04-01T22:13:07;8.80;99.90
25440;DHT22;13365;52.208;5.488;2023-04-01T22:19:02;8.80;99.90
25440;DHT22;13365;52.208;5.488;2023-04-01T22:21:44;8.90;99.90
25440;DHT22;13365;52.208;5.488;2023-04-01T22:30:24;8.80;99.90
25440;DHT22;13365;52.208;5.488;2023-04-01T22:33:02;9.00;99.90
25440;DHT22;13365;52.208;5.488;2023-04-01T22:35:50;9.00;99.90
25440;DHT22;13365;52.208;5.488;2023-04-01T22:38:46;8.80;99.90
25440;DHT22;13365;52.208;5.488;2023-04-01T22:41:26;8.70;99.90
25440;DHT22;13365;52.208;5.488;2023-04-01T22:43:56;8.70;99.90
25440;DHT22;13365;52.208;5.488;2023-04-01T22:46:38;8.80;99.90
25440;DHT22;13365;52.208;5.488;2023-04-01T22:54:43;8.80;99.90
25440;DHT22;13365;52.208;5.488;2023-04-01T23:02:39;8.90;99.90
25440;DHT22;13365;52.208;5.488;2023-04-01T23:05:11;8.90;99.90
25440;DHT22;13365;52.208;5.488;2023-04-01T23:07:56;8.80;99.90
25440;DHT22;13365;52.208;5.488;2023-04-01T23:13:03;8.30;99.90
25440;DHT22;13365;52.208;5.488;2023-04-01T23:15:30;8.30;99.90
25440;DHT22;13365;52.208;5.488;2023-04-01T23:21:15;8.20;99.90
25440;DHT22;13365;52.208;5.488;2023-04-01T23:26:55;8.40;99.90
25440;DHT22;13365;52.208;5.488;2023-04-01T23:29:22;8.40;99.90
25440;DHT22;13365;52.208;5.488;2023-04-01T23:31:57;8.30;99.90
25440;DHT22;13365;52.208;5.488;2023-04-01T23:34:30;8.20;99.90
25440;DHT22;13365;52.208;5.488;2023-04-01T23:36:59;8.30;99.90
25440;DHT22;13365;52.208;5.488;2023-04-01T23:39:36;8.50;99.90
25440;DHT22;13365;52.208;5.488;2023-04-01T23:42:15;8.50;99.90
25440;DHT22;13365;52.208;5.488;2023-04-01T23:44:43;8.50;99.90
25440;DHT22;13365;52.208;5.488;2023-04-01T23:47:14;8.60;99.90
25440;DHT22;13365;52.208;5.488;2023-04-01T23:50:16;8.50;99.90
25440;DHT22;13365;52.208;5.488;2023-04-01T23:52:47;8.40;99.90
25440;DHT22;13365;52.208;5.488;2023-04-01T23:55:26;8.40;99.90
25440;DHT22;13365;52.208;5.488;2023-04-01T23:58:16;8.40;99.90
